AFR306 LFPG-LEBB
Flight info
| Callsign | AFR306 |
|---|---|
| Flight time | N/A |
| Altitude | 29000 |
| Route | AGOPA DCT ARKIP DCT ARMAL DCT ARTAX DCT BEBIX DCT LMG DCT UVELI DCT OSMOB DCT VAVIX/N0392F230 DCT BTZ DCT URUNA P181 SSN L176 CEGAM |
| Aircraft | A321/M-SDE3FGHIRWY/LB1 |
Departure
| Time | 2026-05-06 16:15 |
|---|---|
| Airport | Charles de Gaulle International Airport (LFPG) |
Arrival
| Time | N/A |
|---|---|
| Airport | Bilbao Airport (LEBB) |
| Time | Latitude | Longitude | Altitude | Speed | Heading |
|---|---|---|---|---|---|
| 2026-05-06 15:48 | 49.00265 | 2.59015 | 361 ft | 0 kts | 84° |
| 2026-05-06 16:08 | 49.00264 | 2.59004 | 354 ft | 4 kts | 84° |
| 2026-05-06 16:08 | 49.00262 | 2.58964 | 361 ft | 4 kts | 85° |
| 2026-05-06 16:08 | 49.00260 | 2.58931 | 361 ft | 3 kts | 85° |
| 2026-05-06 16:09 | 49.00258 | 2.58894 | 354 ft | 4 kts | 101° |
| 2026-05-06 16:09 | 49.00271 | 2.58875 | 364 ft | 4 kts | 172° |
| 2026-05-06 16:09 | 49.00296 | 2.58872 | 363 ft | 4 kts | 175° |
| 2026-05-06 16:09 | 49.00310 | 2.58870 | 361 ft | 0 kts | 175° |
| 2026-05-06 16:11 | 49.00277 | 2.58874 | 361 ft | 11 kts | 175° |
| 2026-05-06 16:12 | 49.00167 | 2.58888 | 361 ft | 18 kts | 175° |
| 2026-05-06 16:12 | 49.00056 | 2.58958 | 359 ft | 17 kts | 144° |
| 2026-05-06 16:12 | 48.99975 | 2.59068 | 357 ft | 15 kts | 114° |
| 2026-05-06 16:12 | 48.99970 | 2.59250 | 354 ft | 22 kts | 85° |
| 2026-05-06 16:13 | 48.99985 | 2.59514 | 356 ft | 26 kts | 85° |
| 2026-05-06 16:13 | 49.00000 | 2.59784 | 354 ft | 25 kts | 85° |
| 2026-05-06 16:13 | 49.00014 | 2.60042 | 360 ft | 24 kts | 85° |
| 2026-05-06 16:13 | 48.99990 | 2.60236 | 361 ft | 16 kts | 147° |
| 2026-05-06 16:14 | 48.99892 | 2.60211 | 358 ft | 14 kts | 218° |
| 2026-05-06 16:14 | 48.99835 | 2.60092 | 356 ft | 14 kts | 248° |
| 2026-05-06 16:14 | 48.99820 | 2.59959 | 355 ft | 12 kts | 265° |
| 2026-05-06 16:14 | 48.99809 | 2.59752 | 353 ft | 42 kts | 265° |
| 2026-05-06 16:15 | 48.99767 | 2.58960 | 352 ft | 105 kts | 265° |
| 2026-05-06 16:15 | 48.99694 | 2.57587 | 352 ft | 153 kts | 265° |
| 2026-05-06 16:15 | 48.99618 | 2.55828 | 594 ft | 171 kts | 268° |
| 2026-05-06 16:15 | 48.99536 | 2.54021 | 1240 ft | 172 kts | 269° |
| 2026-05-06 16:16 | 48.99434 | 2.52144 | 1585 ft | 189 kts | 268° |
| 2026-05-06 16:16 | 48.99317 | 2.50016 | 1741 ft | 214 kts | 267° |
| 2026-05-06 16:16 | 48.99183 | 2.47619 | 2048 ft | 241 kts | 267° |
| 2026-05-06 16:16 | 48.99036 | 2.45004 | 2925 ft | 252 kts | 267° |
| 2026-05-06 16:17 | 48.98884 | 2.42322 | 4050 ft | 258 kts | 267° |
| 2026-05-06 16:17 | 48.98726 | 2.39588 | 5129 ft | 262 kts | 266° |
| 2026-05-06 16:17 | 48.98569 | 2.36818 | 6147 ft | 265 kts | 268° |
| 2026-05-06 16:17 | 48.98409 | 2.33972 | 6965 ft | 273 kts | 268° |
| 2026-05-06 16:18 | 48.98246 | 2.31080 | 7811 ft | 276 kts | 266° |
| 2026-05-06 16:18 | 48.98082 | 2.28157 | 8594 ft | 279 kts | 266° |
| 2026-05-06 16:18 | 48.97916 | 2.25201 | 9335 ft | 282 kts | 266° |
| 2026-05-06 16:18 | 48.97746 | 2.22207 | 10035 ft | 285 kts | 266° |
| 2026-05-06 16:19 | 48.97630 | 2.20179 | 10231 ft | 298 kts | 267° |
| 2026-05-06 16:19 | 48.97445 | 2.16917 | 10439 ft | 318 kts | 266° |
| 2026-05-06 16:19 | 48.97192 | 2.12455 | 11186 ft | 326 kts | 267° |
| 2026-05-06 16:19 | 48.96995 | 2.08998 | 11827 ft | 330 kts | 265° |
| 2026-05-06 16:20 | 48.96473 | 2.05589 | 12466 ft | 336 kts | 247° |
| 2026-05-06 16:20 | 48.95174 | 2.02625 | 13106 ft | 341 kts | 226° |
| 2026-05-06 16:20 | 48.93227 | 2.00558 | 13750 ft | 346 kts | 204° |
| 2026-05-06 16:20 | 48.91668 | 1.99844 | 14136 ft | 349 kts | 189° |
| 2026-05-06 16:21 | 48.89234 | 1.99679 | 14741 ft | 351 kts | 181° |
| 2026-05-06 16:21 | 48.86784 | 1.99663 | 15373 ft | 353 kts | 181° |
| 2026-05-06 16:21 | 48.84354 | 1.99645 | 15999 ft | 355 kts | 181° |
| 2026-05-06 16:21 | 48.81881 | 1.99621 | 16608 ft | 357 kts | 182° |
| 2026-05-06 16:22 | 48.79388 | 1.99593 | 17217 ft | 359 kts | 182° |
| 2026-05-06 16:22 | 48.76879 | 1.99565 | 17833 ft | 362 kts | 182° |
| 2026-05-06 16:22 | 48.74356 | 1.99535 | 18397 ft | 364 kts | 182° |
| 2026-05-06 16:22 | 48.71811 | 1.99504 | 18907 ft | 367 kts | 181° |
| 2026-05-06 16:23 | 48.69245 | 1.99474 | 19386 ft | 370 kts | 181° |
| 2026-05-06 16:23 | 48.66654 | 1.99443 | 19862 ft | 374 kts | 181° |
| 2026-05-06 16:23 | 48.64043 | 1.99422 | 20352 ft | 377 kts | 181° |
| 2026-05-06 16:23 | 48.61411 | 1.99456 | 20853 ft | 379 kts | 180° |
| 2026-05-06 16:24 | 48.58766 | 1.99530 | 21331 ft | 381 kts | 179° |
| 2026-05-06 16:24 | 48.56104 | 1.99621 | 21792 ft | 384 kts | 179° |
| 2026-05-06 16:24 | 48.53425 | 1.99716 | 22236 ft | 387 kts | 179° |
| 2026-05-06 16:24 | 48.50728 | 1.99807 | 22658 ft | 389 kts | 179° |
| 2026-05-06 16:25 | 48.48014 | 1.99888 | 23072 ft | 391 kts | 179° |
| 2026-05-06 16:25 | 48.45281 | 1.99962 | 23475 ft | 394 kts | 179° |
| 2026-05-06 16:25 | 48.42565 | 2.00035 | 23677 ft | 401 kts | 179° |
| 2026-05-06 16:25 | 48.39740 | 2.00115 | 23795 ft | 410 kts | 180° |
| 2026-05-06 16:26 | 48.36873 | 2.00188 | 24163 ft | 413 kts | 180° |
| 2026-05-06 16:26 | 48.34045 | 2.00323 | 24554 ft | 407 kts | 173° |
| 2026-05-06 16:26 | 48.31225 | 2.00725 | 25065 ft | 404 kts | 176° |
| 2026-05-06 16:26 | 48.28476 | 2.00891 | 26087 ft | 385 kts | 180° |
| 2026-05-06 16:27 | 48.25803 | 2.00831 | 26566 ft | 387 kts | 182° |
| 2026-05-06 16:27 | 48.23085 | 2.00700 | 26734 ft | 394 kts | 182° |
| 2026-05-06 16:27 | 48.20314 | 2.00594 | 26829 ft | 403 kts | 181° |
| 2026-05-06 16:27 | 48.17477 | 2.00544 | 26942 ft | 412 kts | 181° |
| 2026-05-06 16:28 | 48.14592 | 2.00553 | 27150 ft | 417 kts | 180° |
| 2026-05-06 16:28 | 48.11674 | 2.00612 | 27423 ft | 421 kts | 179° |
| 2026-05-06 16:28 | 48.08773 | 2.00760 | 27745 ft | 424 kts | 178° |
| 2026-05-06 16:28 | 48.05814 | 2.00962 | 27973 ft | 429 kts | 178° |
| 2026-05-06 16:29 | 48.02811 | 2.01205 | 28103 ft | 436 kts | 177° |
| 2026-05-06 16:29 | 47.99759 | 2.01452 | 28260 ft | 442 kts | 177° |
| 2026-05-06 16:29 | 47.96664 | 2.01685 | 28404 ft | 449 kts | 178° |
| 2026-05-06 16:29 | 47.93527 | 2.01896 | 28575 ft | 454 kts | 178° |
| 2026-05-06 16:30 | 47.90356 | 2.02085 | 28763 ft | 458 kts | 178° |
| 2026-05-06 16:30 | 47.88196 | 2.02205 | 28901 ft | 460 kts | 178° |
| 2026-05-06 16:30 | 47.84013 | 2.02432 | 28953 ft | 448 kts | 178° |
| 2026-05-06 16:30 | 47.80915 | 2.02603 | 28920 ft | 444 kts | 178° |
| 2026-05-06 16:31 | 47.74773 | 2.02954 | 28917 ft | 439 kts | 178° |
| 2026-05-06 16:31 | 47.68672 | 2.03318 | 28922 ft | 438 kts | 178° |
| 2026-05-06 16:32 | 47.62584 | 2.03685 | 28920 ft | 438 kts | 178° |
| 2026-05-06 16:32 | 47.56489 | 2.04035 | 28927 ft | 438 kts | 178° |
| 2026-05-06 16:33 | 47.50403 | 2.04380 | 28942 ft | 437 kts | 178° |
| 2026-05-06 16:34 | 47.41301 | 2.04897 | 28943 ft | 436 kts | 178° |
| 2026-05-06 16:34 | 47.35246 | 2.05202 | 28944 ft | 435 kts | 180° |
| 2026-05-06 16:35 | 47.29254 | 2.04097 | 28943 ft | 434 kts | 189° |
| 2026-05-06 16:35 | 47.23304 | 2.02584 | 28943 ft | 434 kts | 189° |
| 2026-05-06 16:36 | 47.17356 | 2.01068 | 28935 ft | 434 kts | 189° |
| 2026-05-06 16:36 | 47.11409 | 1.99560 | 28931 ft | 434 kts | 189° |
| 2026-05-06 16:37 | 47.05460 | 1.98065 | 28928 ft | 434 kts | 189° |
| 2026-05-06 16:37 | 46.99512 | 1.96581 | 28930 ft | 434 kts | 189° |
| 2026-05-06 16:38 | 46.93557 | 1.95093 | 28920 ft | 434 kts | 189° |
| 2026-05-06 16:38 | 46.87625 | 1.93613 | 28917 ft | 436 kts | 189° |
| 2026-05-06 16:39 | 46.81628 | 1.92114 | 28918 ft | 438 kts | 189° |
| 2026-05-06 16:39 | 46.75617 | 1.90611 | 28922 ft | 439 kts | 189° |
| 2026-05-06 16:40 | 46.69599 | 1.89120 | 28925 ft | 439 kts | 189° |
| 2026-05-06 16:40 | 46.63576 | 1.87638 | 28931 ft | 439 kts | 189° |
| 2026-05-06 16:41 | 46.57557 | 1.86152 | 28927 ft | 439 kts | 189° |
| 2026-05-06 16:41 | 46.51535 | 1.84657 | 28920 ft | 439 kts | 189° |
| 2026-05-06 16:42 | 46.45496 | 1.83176 | 28912 ft | 440 kts | 189° |
| 2026-05-06 16:42 | 46.39454 | 1.81694 | 28913 ft | 440 kts | 189° |
| 2026-05-06 16:43 | 46.33411 | 1.80206 | 28911 ft | 440 kts | 190° |
| 2026-05-06 16:43 | 46.27461 | 1.78201 | 28907 ft | 439 kts | 202° |
| 2026-05-06 16:44 | 46.22218 | 1.73879 | 28906 ft | 437 kts | 220° |
| 2026-05-06 16:44 | 46.17612 | 1.68146 | 28906 ft | 438 kts | 221° |
| 2026-05-06 16:45 | 46.13009 | 1.62405 | 28922 ft | 437 kts | 222° |
| 2026-05-06 16:45 | 46.08412 | 1.56693 | 28916 ft | 436 kts | 222° |
| 2026-05-06 16:46 | 46.03814 | 1.50987 | 28901 ft | 437 kts | 222° |
| 2026-05-06 16:46 | 45.99212 | 1.45282 | 28900 ft | 437 kts | 222° |
| 2026-05-06 16:47 | 45.94945 | 1.39121 | 28904 ft | 434 kts | 235° |
| 2026-05-06 16:47 | 45.91974 | 1.31645 | 28917 ft | 430 kts | 245° |
| 2026-05-06 16:48 | 45.89262 | 1.23986 | 28922 ft | 430 kts | 245° |
| 2026-05-06 16:48 | 45.86539 | 1.16351 | 28892 ft | 430 kts | 245° |
| 2026-05-06 16:49 | 45.83801 | 1.08727 | 28890 ft | 430 kts | 245° |
| 2026-05-06 16:49 | 45.80495 | 1.01563 | 28894 ft | 435 kts | 229° |
| 2026-05-06 16:50 | 45.75952 | 0.95792 | 28894 ft | 438 kts | 222° |
| 2026-05-06 16:50 | 45.71271 | 0.90207 | 28891 ft | 438 kts | 222° |
| 2026-05-06 16:51 | 45.66595 | 0.84619 | 28895 ft | 438 kts | 222° |
| 2026-05-06 16:51 | 45.61918 | 0.79031 | 28896 ft | 438 kts | 222° |
| 2026-05-06 16:52 | 45.57264 | 0.73480 | 28881 ft | 440 kts | 221° |
| 2026-05-06 16:52 | 45.52549 | 0.67889 | 28894 ft | 441 kts | 221° |
| 2026-05-06 16:53 | 45.47818 | 0.62294 | 28899 ft | 442 kts | 221° |
| 2026-05-06 16:53 | 45.43076 | 0.56696 | 28905 ft | 443 kts | 221° |
| 2026-05-06 16:54 | 45.38360 | 0.51153 | 28906 ft | 443 kts | 220° |
| 2026-05-06 16:54 | 45.33610 | 0.45574 | 28909 ft | 443 kts | 221° |
| 2026-05-06 16:55 | 45.28858 | 0.39998 | 28920 ft | 443 kts | 221° |
| 2026-05-06 16:55 | 45.24103 | 0.34419 | 28894 ft | 444 kts | 222° |
| 2026-05-06 16:56 | 45.19318 | 0.28828 | 28911 ft | 446 kts | 222° |
| 2026-05-06 16:56 | 45.14519 | 0.23230 | 28919 ft | 447 kts | 222° |
| 2026-05-06 16:57 | 45.09711 | 0.17644 | 28941 ft | 447 kts | 221° |
| 2026-05-06 16:57 | 45.04890 | 0.12075 | 28953 ft | 448 kts | 221° |
| 2026-05-06 16:58 | 45.00073 | 0.06501 | 28930 ft | 447 kts | 221° |
| 2026-05-06 16:58 | 44.95267 | 0.00937 | 28949 ft | 446 kts | 222° |